This is the latest recevied weather packets stored in our database for station/object N5YHM-13. If no packets are shown the sender has not sent any weather packets the latest 10 day(s).
| Time | Temp. | Humidity | Pressure | Rain* | Wind** | Luminosity | Snow |
|---|---|---|---|---|---|---|---|
| 1788123026 | 31.11° C | 78% | 1017.2 hPa | 0 mm | - | 31 W/m² | - |
| 1788122724 | 31.11° C | 79% | 1017.4 hPa | 0 mm | - | 53 W/m² | - |
| 1788122418 | 31.11° C | 79% | 1017.7 hPa | 0 mm | - | 116 W/m² | - |
| 1788122114 | 30.56° C | 79% | 1017.8 hPa | 0 mm | - | 82 W/m² | - |
| 1788121810 | 30.56° C | 80% | 1017.8 hPa | 0 mm | - | 42 W/m² | - |
| 1788121503 | 30.56° C | 78% | 1017.9 hPa | 0 mm | - | 33 W/m² | - |
| 1788121200 | 30.56° C | 79% | 1018 hPa | 0 mm | - | 26 W/m² | - |
| 1788120899 | 30.56° C | 81% | 1017.8 hPa | 0 mm | - | 24 W/m² | - |
| 1788120594 | 30.56° C | 80% | 1018.1 hPa | 0 mm | - | 30 W/m² | - |
| 1788120294 | 30.56° C | 80% | 1018.2 hPa | 0 mm | - | 27 W/m² | - |
| 1788119994 | 30.56° C | 81% | 1018.3 hPa | 0 mm | - | 37 W/m² | - |
| 1788119690 | 30.56° C | 80% | 1018.4 hPa | 0 mm | - | 25 W/m² | - |
| 1788119388 | 30.56° C | 81% | 1018.3 hPa | 0 mm | - | 22 W/m² | - |
| 1788119087 | 30.56° C | 81% | 1018.3 hPa | 0 mm | - | 23 W/m² | - |
| 1788118782 | 30° C | 82% | 1018.5 hPa | 0 mm | - | 28 W/m² | - |
| 1788118481 | 29.44° C | 86% | 1018.4 hPa | 0 mm | - | 20 W/m² | - |
| 1788118177 | 29.44° C | 88% | 1018.5 hPa | 0 mm | - | 24 W/m² | - |
| 1788117872 | 28.33° C | 88% | 1018.5 hPa | 0 mm | - | 39 W/m² | - |
| 1788117567 | 28.33° C | 89% | 1018.4 hPa | 0 mm | - | 36 W/m² | - |
| 1788117267 | 27.78° C | 91% | 1018.8 hPa | 0 mm | - | 34 W/m² | - |
| 1788116963 | 27.78° C | 91% | 1018.6 hPa | 0 mm | - | 31 W/m² | - |
| 1788116662 | 27.78° C | 90% | 1018.8 hPa | 0 mm | - | 25 W/m² | - |
| 1788116362 | 28.89° C | 89% | 1018.9 hPa | 0 mm | - | 23 W/m² | - |
| 1788116057 | 28.33° C | 87% | 1019.2 hPa | 0 mm | - | 187 W/m² | - |
| 1788115752 | 28.33° C | 87% | 1019 hPa | 0 mm | - | 37 W/m² | - |
* Rain latest hour (hover to see other rain measurements)
** Current wind speed in m/s (hover to see current wind gust speed)